createdAt,value
2022-10-28T00:00:52.929Z,20.83
2022-10-28T00:03:50.267Z,19.15
2022-10-28T00:06:36.898Z,22.20
2022-10-28T00:09:22.121Z,21.92
2022-10-28T00:12:07.934Z,23.20
2022-10-28T00:14:55.581Z,19.92
2022-10-28T00:17:40.715Z,20.48
2022-10-28T00:20:26.126Z,19.20
2022-10-28T00:23:11.796Z,21.65
2022-10-28T00:26:14.407Z,25.17
2022-10-28T00:29:02.754Z,24.17
2022-10-28T00:31:48.189Z,21.13
2022-10-28T00:34:33.480Z,27.88
2022-10-28T00:37:18.846Z,18.60
2022-10-28T00:40:05.759Z,25.33
2022-10-28T00:42:51.937Z,24.90
2022-10-28T00:45:38.382Z,26.40
2022-10-28T00:48:23.753Z,26.75
2022-10-28T00:51:09.813Z,17.58
2022-10-28T00:53:56.305Z,28.83
2022-10-28T00:56:49.725Z,17.52
2022-10-28T00:59:38.713Z,22.85
2022-10-28T01:02:24.165Z,22.38
2022-10-28T01:05:12.079Z,25.38
2022-10-28T01:08:01.244Z,25.08
2022-10-28T01:11:24.463Z,28.50
2022-10-28T01:14:41.898Z,22.85
2022-10-28T01:17:58.205Z,20.75
2022-10-28T01:21:14.259Z,21.08
2022-10-28T01:24:19.533Z,25.25
2022-10-28T01:27:26.137Z,21.27
2022-10-28T01:30:14.910Z,23.85
2022-10-28T01:33:09.801Z,31.67
2022-10-28T01:36:11.982Z,24.52
2022-10-28T01:39:23.449Z,24.35
2022-10-28T01:42:26.454Z,23.10
2022-10-28T01:45:20.218Z,21.00
2022-10-28T01:48:12.453Z,20.90
2022-10-28T01:51:10.977Z,25.10
2022-10-28T01:53:59.884Z,29.02
2022-10-28T01:56:47.160Z,25.17
2022-10-28T01:59:34.291Z,23.50
2022-10-28T02:02:19.857Z,20.15
2022-10-28T02:05:44.194Z,23.23
2022-10-28T02:08:38.687Z,23.20
2022-10-28T02:11:29.725Z,29.48
2022-10-28T02:14:37.865Z,25.10
2022-10-28T02:17:47.762Z,24.10
2022-10-28T02:21:02.036Z,21.30
2022-10-28T02:24:01.219Z,24.35
2022-10-28T02:27:04.917Z,20.95
2022-10-28T02:29:56.128Z,25.65
2022-10-28T02:32:46.663Z,31.15
2022-10-28T02:35:44.682Z,24.88
2022-10-28T02:38:53.195Z,23.52
2022-10-28T02:41:47.484Z,23.95
2022-10-28T02:44:38.919Z,24.08
2022-10-28T02:47:31.298Z,28.40
2022-10-28T02:50:21.051Z,30.27
2022-10-28T02:53:32.278Z,31.52
2022-10-28T02:56:19.896Z,24.17
2022-10-28T02:59:11.058Z,32.63
2022-10-28T03:01:56.939Z,31.48
2022-10-28T03:04:42.619Z,26.23
2022-10-28T03:07:28.242Z,23.25
2022-10-28T03:10:13.847Z,23.23
2022-10-28T03:12:59.257Z,26.52
2022-10-28T03:15:44.711Z,29.38
2022-10-28T03:18:30.170Z,29.30
2022-10-28T03:21:15.443Z,22.38
2022-10-28T03:24:00.967Z,30.20
2022-10-28T03:26:46.613Z,22.15
2022-10-28T03:29:32.038Z,23.40
2022-10-28T03:32:19.034Z,25.58
2022-10-28T03:35:05.174Z,21.73
2022-10-28T03:37:51.363Z,26.73
2022-10-28T03:40:36.588Z,21.67
2022-10-28T03:43:21.977Z,21.30
2022-10-28T03:46:07.386Z,23.08
2022-10-28T03:48:52.975Z,22.42
2022-10-28T03:51:38.641Z,27.20
2022-10-28T03:54:24.222Z,22.58
2022-10-28T03:57:09.562Z,28.35
2022-10-28T03:59:55.210Z,25.58
2022-10-28T04:02:40.869Z,23.98
2022-10-28T04:05:26.386Z,29.55
2022-10-28T04:08:11.907Z,34.60
2022-10-28T04:10:57.370Z,28.55
2022-10-28T04:13:43.067Z,29.38
2022-10-28T04:16:28.439Z,23.63
2022-10-28T04:19:13.823Z,22.63
2022-10-28T04:21:59.561Z,28.30
2022-10-28T04:24:45.085Z,30.13
2022-10-28T04:27:30.581Z,25.55
2022-10-28T04:30:16.487Z,24.60
2022-10-28T04:33:01.831Z,24.38
2022-10-28T04:35:47.496Z,27.70
2022-10-28T04:38:32.823Z,23.75
2022-10-28T04:41:18.739Z,23.85
2022-10-28T04:44:03.958Z,25.98
2022-10-28T04:46:49.333Z,26.10
2022-10-28T04:49:36.743Z,32.10
2022-10-28T04:52:24.316Z,28.33
2022-10-28T04:55:10.038Z,23.02
2022-10-28T04:57:57.137Z,33.65
2022-10-28T05:00:42.290Z,27.80
2022-10-28T05:03:27.884Z,27.13
2022-10-28T05:06:13.386Z,24.23
2022-10-28T05:08:58.842Z,22.85
2022-10-28T05:11:45.574Z,24.75
2022-10-28T05:14:30.688Z,21.60
2022-10-28T05:17:16.130Z,23.40
2022-10-28T05:20:01.478Z,23.42
2022-10-28T05:22:50.251Z,20.35
2022-10-28T05:25:35.942Z,16.40
2022-10-28T05:28:21.891Z,23.17
2022-10-28T05:31:07.242Z,20.08
2022-10-28T05:33:52.709Z,18.90
2022-10-28T05:36:38.683Z,20.88
2022-10-28T05:39:23.890Z,15.80
2022-10-28T05:42:09.572Z,20.90
2022-10-28T05:44:54.893Z,29.38
2022-10-28T05:47:44.741Z,21.90
2022-10-28T05:50:30.125Z,20.10
2022-10-28T05:53:15.998Z,18.48
2022-10-28T05:56:01.398Z,19.92
2022-10-28T05:58:47.615Z,22.90
2022-10-28T06:01:32.978Z,27.85
2022-10-28T06:04:18.739Z,24.70
2022-10-28T06:07:04.209Z,23.00
2022-10-28T06:09:50.742Z,24.42
2022-10-28T06:12:34.659Z,26.60
2022-10-28T06:15:20.236Z,22.63
2022-10-28T06:18:05.723Z,21.23
2022-10-28T06:20:56.296Z,23.50
2022-10-28T06:23:41.562Z,25.27
2022-10-28T06:26:26.986Z,26.60
2022-10-28T06:29:12.632Z,26.80
2022-10-28T06:31:58.483Z,23.88
2022-10-28T06:34:43.718Z,18.63
2022-10-28T06:37:29.574Z,20.27
2022-10-28T06:40:14.851Z,27.30
2022-10-28T06:43:05.550Z,19.75
2022-10-28T06:45:55.077Z,24.48
2022-10-28T06:48:41.923Z,28.85
2022-10-28T06:51:27.529Z,21.83
2022-10-28T06:54:12.810Z,19.60
2022-10-28T06:56:58.364Z,29.15
2022-10-28T06:59:43.835Z,17.63
2022-10-28T07:02:29.603Z,21.50
2022-10-28T07:05:15.315Z,20.08
2022-10-28T07:08:00.428Z,20.75
2022-10-28T07:10:57.059Z,20.08
2022-10-28T07:13:44.265Z,25.92
2022-10-28T07:16:31.775Z,17.10
2022-10-28T07:19:21.661Z,22.05
2022-10-28T07:22:08.311Z,22.08
2022-10-28T07:24:53.959Z,28.83
2022-10-28T07:27:39.759Z,24.30
2022-10-28T07:30:25.844Z,20.90
2022-10-28T07:33:11.335Z,22.02
2022-10-28T07:35:56.746Z,27.77
2022-10-28T07:38:42.242Z,26.15
2022-10-28T07:41:27.837Z,25.90
2022-10-28T07:44:14.250Z,19.13
2022-10-28T07:46:59.622Z,19.00
2022-10-28T07:49:45.294Z,25.50
2022-10-28T07:52:30.633Z,23.73
2022-10-28T07:55:16.395Z,23.33
2022-10-28T07:58:01.654Z,18.38
2022-10-28T08:00:47.247Z,17.55
2022-10-28T08:03:38.616Z,18.70
2022-10-28T08:06:24.463Z,24.73
2022-10-28T08:09:10.170Z,25.00
2022-10-28T08:11:57.088Z,27.48
2022-10-28T08:14:42.506Z,20.95
2022-10-28T08:17:27.893Z,25.90
2022-10-28T08:20:13.445Z,27.98
2022-10-28T08:23:01.774Z,22.40
2022-10-28T08:25:53.444Z,18.58
2022-10-28T08:28:39.096Z,16.92
2022-10-28T08:31:24.463Z,22.63
2022-10-28T08:34:10.122Z,22.67
2022-10-28T08:36:57.303Z,21.05
2022-10-28T08:39:42.627Z,19.88
2022-10-28T08:42:56.586Z,18.90
2022-10-28T08:46:00.115Z,24.00
2022-10-28T08:48:45.610Z,19.52
2022-10-28T08:51:36.576Z,19.25
2022-10-28T08:54:32.347Z,23.00
2022-10-28T08:57:22.157Z,19.98
2022-10-28T09:00:27.226Z,22.20
2022-10-28T09:03:12.463Z,22.60
2022-10-28T09:06:04.054Z,19.55
2022-10-28T09:08:50.884Z,17.70
2022-10-28T09:11:55.286Z,28.27
2022-10-28T09:14:49.201Z,21.92
2022-10-28T09:17:53.529Z,15.75
2022-10-28T09:21:01.630Z,11.07
2022-10-28T09:23:56.732Z,14.18
2022-10-28T09:27:14.233Z,18.58
2022-10-28T09:30:22.487Z,19.33
2022-10-28T09:33:20.085Z,19.33
2022-10-28T09:36:11.507Z,19.80
2022-10-28T09:38:58.671Z,16.25
2022-10-28T09:41:45.903Z,12.57
2022-10-28T09:44:40.252Z,13.13
2022-10-28T09:47:30.559Z,12.45
2022-10-28T09:50:23.557Z,10.80
2022-10-28T09:53:23.103Z,14.65
2022-10-28T09:56:09.725Z,10.63
2022-10-28T09:58:59.091Z,10.65
2022-10-28T10:01:46.604Z,10.50
2022-10-28T10:04:32.193Z,8.50
2022-10-28T10:07:33.405Z,9.05
2022-10-28T10:10:26.935Z,10.50
2022-10-28T10:13:15.845Z,5.47
2022-10-28T10:16:06.699Z,13.25
2022-10-28T10:18:56.933Z,8.30
2022-10-28T10:21:48.264Z,7.82
2022-10-28T10:24:35.510Z,6.97
2022-10-28T10:27:21.370Z,7.07
2022-10-28T10:30:16.313Z,7.80
2022-10-28T10:33:03.130Z,10.23
2022-10-28T10:36:10.341Z,9.38
2022-10-28T10:39:00.859Z,11.90
2022-10-28T10:41:46.169Z,8.40
2022-10-28T10:44:34.723Z,6.68
2022-10-28T10:47:20.743Z,8.68
2022-10-28T10:53:37.869Z,5.05
2022-10-28T10:56:25.824Z,6.03
2022-10-28T10:59:27.689Z,9.48
2022-10-28T11:02:30.712Z,7.95
2022-10-28T11:05:25.756Z,5.80
2022-10-28T11:08:35.497Z,9.10
2022-10-28T11:11:22.383Z,12.75
2022-10-28T11:14:12.459Z,8.98
2022-10-28T11:17:02.989Z,6.95
2022-10-28T11:19:50.392Z,7.65
2022-10-28T11:22:55.684Z,7.70
2022-10-28T11:25:49.237Z,8.25
2022-10-28T11:29:04.372Z,7.22
2022-10-28T11:32:32.048Z,12.27
2022-10-28T11:35:35.484Z,6.95
2022-10-28T11:38:41.956Z,7.57
2022-10-28T11:41:52.669Z,11.57
2022-10-28T11:44:52.194Z,11.75
2022-10-28T11:48:01.653Z,10.52
2022-10-28T11:51:10.849Z,9.77
2022-10-28T11:54:08.114Z,9.57
2022-10-28T11:57:01.733Z,11.75
2022-10-28T12:00:25.884Z,6.05
2022-10-28T12:03:29.693Z,7.65
2022-10-28T12:06:20.734Z,10.00
2022-10-28T12:09:15.431Z,8.20
2022-10-28T12:12:18.501Z,12.23
2022-10-28T12:15:33.508Z,11.05
2022-10-28T12:18:53.660Z,7.93
2022-10-28T12:21:43.780Z,9.70
2022-10-28T12:24:34.133Z,8.50
2022-10-28T12:27:30.916Z,10.38
2022-10-28T12:30:23.097Z,11.98
2022-10-28T12:33:19.025Z,8.98
2022-10-28T12:36:04.457Z,10.80
2022-10-28T12:39:03.279Z,9.77
2022-10-28T12:42:05.852Z,10.40
2022-10-28T12:44:54.048Z,12.32
2022-10-28T12:48:06.987Z,5.97
2022-10-28T12:51:14.660Z,6.78
2022-10-28T12:54:26.120Z,11.38
2022-10-28T12:57:14.149Z,10.32
2022-10-28T13:00:21.592Z,7.40
2022-10-28T13:03:15.108Z,11.80
2022-10-28T13:07:08.554Z,10.38
2022-10-28T13:13:46.672Z,13.90
2022-10-28T13:16:47.247Z,12.15
2022-10-28T13:19:57.304Z,7.97
2022-10-28T13:22:53.251Z,10.50
2022-10-28T13:25:55.310Z,10.82
2022-10-28T13:28:50.301Z,14.05
2022-10-28T13:31:45.603Z,6.57
2022-10-28T13:34:34.776Z,9.98
2022-10-28T13:37:22.244Z,10.98
2022-10-28T13:40:33.795Z,9.40
2022-10-28T13:43:20.985Z,12.73
2022-10-28T13:46:06.502Z,9.15
2022-10-28T13:48:51.710Z,8.50
2022-10-28T13:51:46.461Z,10.70
2022-10-28T13:54:54.196Z,9.27
2022-10-28T13:57:43.311Z,10.07
2022-10-28T14:03:22.066Z,12.68
2022-10-28T14:06:07.956Z,8.73
2022-10-28T14:08:53.452Z,9.18
2022-10-28T14:11:39.136Z,14.40
2022-10-28T14:14:24.910Z,9.13
2022-10-28T14:17:22.139Z,7.93
2022-10-28T14:20:29.262Z,6.50
2022-10-28T14:23:20.779Z,8.20
2022-10-28T14:26:06.488Z,10.25
2022-10-28T14:28:52.516Z,8.10
2022-10-28T14:31:40.514Z,8.77
2022-10-28T14:34:37.637Z,8.65
2022-10-28T14:37:35.979Z,10.35
2022-10-28T14:40:33.761Z,8.23
2022-10-28T14:43:40.393Z,8.23
2022-10-28T14:46:40.909Z,10.32
2022-10-28T14:49:30.174Z,9.52
2022-10-28T14:52:19.858Z,10.10
2022-10-28T14:55:27.519Z,10.32
2022-10-28T14:58:24.238Z,5.80
2022-10-28T15:01:24.065Z,9.50
2022-10-28T15:04:13.722Z,7.25
2022-10-28T15:06:59.417Z,10.63
2022-10-28T15:09:48.878Z,8.10
2022-10-28T15:12:34.288Z,8.85
2022-10-28T15:15:21.435Z,8.93
2022-10-28T15:18:27.672Z,7.88
2022-10-28T15:21:26.304Z,9.13
2022-10-28T15:24:15.017Z,5.90
2022-10-28T15:27:00.426Z,9.45
2022-10-28T15:29:46.134Z,7.88
2022-10-28T15:32:40.500Z,10.43
2022-10-28T15:35:29.958Z,6.18
2022-10-28T15:38:21.533Z,7.82
2022-10-28T15:41:41.575Z,11.07
2022-10-28T15:44:30.389Z,9.43
2022-10-28T15:47:31.305Z,5.20
2022-10-28T15:50:17.321Z,6.32
2022-10-28T15:53:11.963Z,7.55
2022-10-28T15:56:09.650Z,11.75
2022-10-28T15:59:13.831Z,2.83
2022-10-28T16:02:01.261Z,4.90
2022-10-28T16:04:46.899Z,9.60
2022-10-28T16:07:32.487Z,7.15
2022-10-28T16:10:18.060Z,8.75
2022-10-28T16:13:09.008Z,10.52
2022-10-28T16:16:09.277Z,7.93
2022-10-28T16:19:07.159Z,11.88
2022-10-28T16:21:52.726Z,9.05
2022-10-28T16:24:38.352Z,10.98
2022-10-28T16:27:24.829Z,11.88
2022-10-28T16:30:10.687Z,8.95
2022-10-28T16:32:57.403Z,9.98
2022-10-28T16:35:43.474Z,13.02
2022-10-28T16:38:32.738Z,10.13
2022-10-28T16:41:19.456Z,15.80
2022-10-28T16:44:04.702Z,10.38
2022-10-28T16:46:50.151Z,12.77
2022-10-28T16:49:35.788Z,6.88
2022-10-28T16:52:24.720Z,9.40
2022-10-28T16:55:15.873Z,12.85
2022-10-28T16:58:01.681Z,10.57
2022-10-28T17:00:47.574Z,10.35
2022-10-28T17:03:33.175Z,7.22
2022-10-28T17:06:18.858Z,11.10
2022-10-28T17:09:04.461Z,8.23
2022-10-28T17:11:49.663Z,9.45
2022-10-28T17:14:35.408Z,11.95
2022-10-28T17:17:20.643Z,7.63
2022-10-28T17:20:07.261Z,6.85
2022-10-28T17:22:53.122Z,7.05
2022-10-28T17:25:38.709Z,6.18
2022-10-28T17:28:24.569Z,10.85
2022-10-28T17:31:10.908Z,6.55
2022-10-28T17:33:56.606Z,8.80
2022-10-28T17:36:42.137Z,8.82
2022-10-28T17:39:27.701Z,5.68
2022-10-28T17:42:13.675Z,7.03
2022-10-28T17:44:58.906Z,9.77
2022-10-28T17:47:44.691Z,9.75
2022-10-28T17:50:29.849Z,10.30
2022-10-28T17:53:15.463Z,10.48
2022-10-28T17:56:03.620Z,8.90
2022-10-28T17:58:51.639Z,7.38
2022-10-28T18:01:37.358Z,6.75
2022-10-28T18:04:32.328Z,6.15
2022-10-28T18:07:18.071Z,9.82
2022-10-28T18:10:03.543Z,8.68
2022-10-28T18:12:51.580Z,9.00
2022-10-28T18:15:37.608Z,9.82
2022-10-28T18:18:25.811Z,8.25
2022-10-28T18:21:12.069Z,12.32
2022-10-28T18:24:03.825Z,9.50
2022-10-28T18:26:49.791Z,8.88
2022-10-28T18:29:35.422Z,10.25
2022-10-28T18:32:20.851Z,7.10
2022-10-28T18:35:06.935Z,16.50
2022-10-28T18:37:53.760Z,9.77
2022-10-28T18:40:48.433Z,10.93
2022-10-28T18:43:34.038Z,9.20
2022-10-28T18:46:19.820Z,11.10
2022-10-28T18:49:05.846Z,10.95
2022-10-28T18:51:51.531Z,12.70
2022-10-28T18:54:37.071Z,11.95
2022-10-28T18:57:22.400Z,15.80
2022-10-28T19:00:23.679Z,10.73
2022-10-28T19:03:22.669Z,12.68
2022-10-28T19:06:10.979Z,15.85
2022-10-28T19:08:58.452Z,19.00
2022-10-28T19:11:44.045Z,13.15
2022-10-28T19:14:29.585Z,16.05
2022-10-28T19:17:15.902Z,19.25
2022-10-28T19:20:04.446Z,13.90
2022-10-28T19:22:50.069Z,11.82
2022-10-28T19:25:35.529Z,17.13
2022-10-28T19:28:20.922Z,14.65
2022-10-28T19:31:09.223Z,14.15
2022-10-28T19:33:55.106Z,13.05
2022-10-28T19:36:40.687Z,12.32
2022-10-28T19:39:26.115Z,10.88
2022-10-28T19:42:11.597Z,15.43
2022-10-28T19:44:57.144Z,13.13
2022-10-28T19:47:42.825Z,13.80
2022-10-28T19:50:28.614Z,12.82
2022-10-28T19:53:14.772Z,17.08
2022-10-28T19:56:02.227Z,12.68
2022-10-28T19:58:53.244Z,9.57
2022-10-28T20:01:39.758Z,10.80
2022-10-28T20:04:26.856Z,12.32
2022-10-28T20:07:12.082Z,13.02
2022-10-28T20:12:47.769Z,19.48
2022-10-28T20:15:33.217Z,12.65
2022-10-28T20:18:18.701Z,14.63
2022-10-28T20:21:11.672Z,22.20
2022-10-28T20:23:57.929Z,14.18
2022-10-28T20:26:43.397Z,12.93
2022-10-28T20:29:28.947Z,17.98
2022-10-28T20:32:16.568Z,12.82
2022-10-28T20:35:03.301Z,20.27
2022-10-28T20:37:52.926Z,21.70
2022-10-28T20:40:38.604Z,13.82
2022-10-28T20:43:26.599Z,15.30
2022-10-28T20:46:16.138Z,22.77
2022-10-28T20:49:05.890Z,13.60
2022-10-28T20:51:51.526Z,18.77
2022-10-28T20:54:36.785Z,19.83
2022-10-28T20:57:22.445Z,20.77
2022-10-28T21:00:08.900Z,22.27
2022-10-28T21:02:55.657Z,22.52
2022-10-28T21:05:42.659Z,15.98
2022-10-28T21:08:28.140Z,17.75
2022-10-28T21:11:15.136Z,17.75
2022-10-28T21:14:01.730Z,15.15
2022-10-28T21:16:50.717Z,16.08
2022-10-28T21:19:35.944Z,18.00
2022-10-28T21:22:21.625Z,18.23
2022-10-28T21:25:07.541Z,14.77
2022-10-28T21:27:53.668Z,16.17
2022-10-28T21:30:39.329Z,15.15
2022-10-28T21:33:24.805Z,18.75
2022-10-28T21:36:13.704Z,16.70
2022-10-28T21:38:59.220Z,14.15
2022-10-28T21:41:45.330Z,18.00
2022-10-28T21:44:33.514Z,16.75
2022-10-28T21:50:05.332Z,19.80
2022-10-28T21:52:50.511Z,18.98
2022-10-28T21:55:46.874Z,17.98
2022-10-28T21:58:36.259Z,15.38
2022-10-28T22:01:24.233Z,13.15
2022-10-28T22:04:09.535Z,19.13
2022-10-28T22:06:55.081Z,15.48
2022-10-28T22:09:40.436Z,13.88
2022-10-28T22:12:25.973Z,16.75
2022-10-28T22:15:11.676Z,14.88
2022-10-28T22:17:57.631Z,17.33
2022-10-28T22:20:43.215Z,18.70
2022-10-28T22:23:28.831Z,15.48
2022-10-28T22:26:20.154Z,16.45
2022-10-28T22:29:05.509Z,16.50
2022-10-28T22:31:51.536Z,18.63
2022-10-28T22:34:37.249Z,19.75
2022-10-28T22:37:22.583Z,18.92
2022-10-28T22:40:08.745Z,14.63
2022-10-28T22:42:53.866Z,29.35
2022-10-28T22:45:39.451Z,22.70
2022-10-28T22:48:25.737Z,19.42
2022-10-28T22:51:11.822Z,18.70
2022-10-28T22:53:57.258Z,19.05
2022-10-28T22:56:45.692Z,20.30
2022-10-28T22:59:30.906Z,24.40
2022-10-28T23:02:16.764Z,21.13
2022-10-28T23:05:01.973Z,17.95
2022-10-28T23:07:47.548Z,17.35
2022-10-28T23:10:33.501Z,18.92
2022-10-28T23:13:18.785Z,20.67
2022-10-28T23:16:05.836Z,20.98
2022-10-28T23:18:55.712Z,20.80
2022-10-28T23:21:42.114Z,19.85
2022-10-28T23:24:27.529Z,20.60
2022-10-28T23:27:13.101Z,12.35
2022-10-28T23:29:58.461Z,19.60
2022-10-28T23:32:44.164Z,16.27
2022-10-28T23:35:29.571Z,14.00
2022-10-28T23:38:16.483Z,22.30
2022-10-28T23:41:04.688Z,20.42
2022-10-28T23:43:50.596Z,22.15
2022-10-28T23:46:37.512Z,14.75
2022-10-28T23:49:23.152Z,24.45
2022-10-28T23:52:08.685Z,19.05
2022-10-28T23:54:54.727Z,19.58
2022-10-28T23:57:39.918Z,18.73
